createdAt,value
2022-11-04T00:00:15.635Z,94051.84
2022-11-04T00:03:23.894Z,94057.16
2022-11-04T00:06:32.168Z,94059.16
2022-11-04T00:09:41.700Z,94067.28
2022-11-04T00:12:48.898Z,94084.84
2022-11-04T00:16:14.756Z,94080.28
2022-11-04T00:19:23.935Z,94097.16
2022-11-04T00:22:49.881Z,94117.75
2022-11-04T00:26:16.825Z,94117.97
2022-11-04T00:29:25.218Z,94123.56
2022-11-04T00:32:53.248Z,94128.63
2022-11-04T00:36:01.516Z,94132.31
2022-11-04T00:39:09.988Z,94141.53
2022-11-04T00:42:19.607Z,94147.72
2022-11-04T00:45:27.774Z,94152.53
2022-11-04T00:48:36.006Z,94152.47
2022-11-04T00:51:44.279Z,94159.94
2022-11-04T00:54:52.593Z,94151.94
2022-11-04T00:58:02.384Z,94171.75
2022-11-04T01:01:12.237Z,94169.91
2022-11-04T01:04:20.583Z,94176.94
2022-11-04T01:07:28.821Z,94190.50
2022-11-04T01:10:44.521Z,94194.84
2022-11-04T01:13:54.192Z,94193.91
2022-11-04T01:17:02.749Z,94193.16
2022-11-04T01:20:13.380Z,94203.63
2022-11-04T01:23:21.921Z,94207.34
2022-11-04T01:26:30.975Z,94220.50
2022-11-04T01:29:40.866Z,94213.22
2022-11-04T01:32:49.104Z,94211.84
2022-11-04T01:36:00.916Z,94204.47
2022-11-04T01:39:09.119Z,94203.91
2022-11-04T01:42:17.326Z,94199.03
2022-11-04T01:45:27.439Z,94180.66
2022-11-04T01:48:36.425Z,94188.22
2022-11-04T01:51:47.912Z,94186.97
2022-11-04T01:55:01.015Z,94178.19
2022-11-04T01:58:14.593Z,94163.72
2022-11-04T02:01:24.575Z,94163.50
2022-11-04T02:04:33.685Z,94154.34
2022-11-04T02:07:42.083Z,94155.59
2022-11-04T02:11:00.603Z,94152.72
2022-11-04T02:14:07.786Z,94147.41
2022-11-04T02:17:35.163Z,94146.22
2022-11-04T02:21:11.153Z,94138.91
2022-11-04T02:24:59.475Z,94130.94
2022-11-04T02:28:47.235Z,94130.72
2022-11-04T02:32:11.409Z,94122.63
2022-11-04T02:35:29.657Z,94114.84
2022-11-04T02:38:51.460Z,94114.03
2022-11-04T02:42:10.487Z,94115.66
2022-11-04T02:45:25.199Z,94126.25
2022-11-04T02:48:42.080Z,94115.84
2022-11-04T02:51:59.631Z,94105.44
2022-11-04T02:55:18.642Z,94099.34
2022-11-04T02:58:34.457Z,94100.56
2022-11-04T03:01:49.478Z,94106.50
2022-11-04T03:05:01.073Z,94119.75
2022-11-04T03:08:17.518Z,94124.00
2022-11-04T03:11:29.542Z,94123.00
2022-11-04T03:14:43.411Z,94118.75
2022-11-04T03:17:59.296Z,94132.03
2022-11-04T03:21:14.008Z,94128.38
2022-11-04T03:24:22.603Z,94136.50
2022-11-04T03:27:42.686Z,94134.66
2022-11-04T03:30:58.028Z,94128.38
2022-11-04T03:34:06.211Z,94133.06
2022-11-04T03:37:16.063Z,94133.69
2022-11-04T03:40:24.753Z,94129.16
2022-11-04T03:43:37.020Z,94127.34
2022-11-04T03:46:45.298Z,94136.91
2022-11-04T03:50:00.942Z,94138.56
2022-11-04T03:53:16.936Z,94141.00
2022-11-04T03:57:08.579Z,94136.13
2022-11-04T04:00:20.977Z,94129.19
2022-11-04T04:03:37.808Z,94128.97
2022-11-04T04:06:48.626Z,94135.91
2022-11-04T04:10:27.944Z,94122.03
2022-11-04T04:13:45.205Z,94111.63
2022-11-04T04:16:58.244Z,94119.19
2022-11-04T04:20:13.721Z,94124.69
2022-11-04T04:23:45.795Z,94121.41
2022-11-04T04:27:16.031Z,94120.63
2022-11-04T04:30:24.710Z,94107.56
2022-11-04T04:33:32.970Z,94104.09
2022-11-04T04:36:47.617Z,94121.84
2022-11-04T04:40:32.356Z,94120.19
2022-11-04T04:43:58.980Z,94132.47
2022-11-04T04:47:10.188Z,94138.16
2022-11-04T04:50:22.687Z,94144.69
2022-11-04T04:53:30.967Z,94136.75
2022-11-04T04:56:39.208Z,94131.84
2022-11-04T04:59:48.697Z,94124.88
2022-11-04T05:02:57.065Z,94131.03
2022-11-04T05:06:05.460Z,94136.94
2022-11-04T05:09:13.931Z,94159.78
2022-11-04T05:12:22.505Z,94152.84
2022-11-04T05:15:33.008Z,94144.69
2022-11-04T05:18:41.442Z,94145.09
2022-11-04T05:21:49.843Z,94132.63
2022-11-04T05:24:58.003Z,94130.00
2022-11-04T05:28:07.483Z,94126.75
2022-11-04T05:31:18.147Z,94123.66
2022-11-04T05:34:26.626Z,94130.19
2022-11-04T05:37:35.175Z,94138.94
2022-11-04T05:40:43.680Z,94136.31
2022-11-04T05:43:53.461Z,94149.19
2022-11-04T05:47:03.194Z,94137.75
2022-11-04T05:50:11.673Z,94124.50
2022-11-04T05:53:21.059Z,94136.94
2022-11-04T05:56:30.276Z,94126.31
2022-11-04T05:59:39.339Z,94130.19
2022-11-04T06:02:51.143Z,94136.94
2022-11-04T06:05:59.724Z,94154.66
2022-11-04T06:09:10.253Z,94160.38
2022-11-04T06:12:20.554Z,94161.00
2022-11-04T06:15:36.483Z,94171.59
2022-11-04T06:18:46.320Z,94178.94
2022-11-04T06:21:54.760Z,94165.06
2022-11-04T06:25:03.446Z,94158.56
2022-11-04T06:28:11.836Z,94153.66
2022-11-04T06:31:21.597Z,94149.16
2022-11-04T06:34:31.599Z,94155.50
2022-11-04T06:37:39.962Z,94160.78
2022-11-04T06:40:48.390Z,94168.75
2022-11-04T06:43:56.719Z,94183.63
2022-11-04T06:47:05.806Z,94175.84
2022-11-04T06:50:15.669Z,94164.88
2022-11-04T06:53:24.076Z,94137.34
2022-11-04T06:56:32.647Z,94126.13
2022-11-04T06:59:41.063Z,94125.13
2022-11-04T07:02:49.550Z,94129.59
2022-11-04T07:06:02.179Z,94145.06
2022-11-04T07:09:13.930Z,94159.34
2022-11-04T07:12:24.767Z,94175.84
2022-11-04T07:15:33.420Z,94180.13
2022-11-04T07:18:41.732Z,94175.84
2022-11-04T07:21:51.693Z,94178.50
2022-11-04T07:25:00.200Z,94175.84
2022-11-04T07:28:09.081Z,94187.50
2022-11-04T07:31:18.134Z,94202.75
2022-11-04T07:34:26.456Z,94224.91
2022-11-04T07:37:36.303Z,94223.78
2022-11-04T07:40:44.647Z,94216.66
2022-11-04T07:43:53.561Z,94222.97
2022-11-04T07:47:02.257Z,94242.50
2022-11-04T07:50:11.842Z,94259.47
2022-11-04T07:53:21.685Z,94255.56
2022-11-04T07:56:30.019Z,94243.94
2022-11-04T07:59:38.410Z,94239.66
2022-11-04T08:02:47.017Z,94221.22
2022-11-04T08:06:00.210Z,94224.06
2022-11-04T08:09:10.435Z,94220.84
2022-11-04T08:12:20.670Z,94214.53
2022-11-04T08:15:29.619Z,94214.28
2022-11-04T08:18:41.796Z,94216.84
2022-11-04T08:21:50.175Z,94193.75
2022-11-04T08:25:00.588Z,94195.75
2022-11-04T08:28:08.924Z,94193.69
2022-11-04T08:31:23.821Z,94189.22
2022-11-04T08:34:32.132Z,94199.44
2022-11-04T08:37:40.468Z,94197.00
2022-11-04T08:40:50.056Z,94198.50
2022-11-04T08:44:04.082Z,94176.00
2022-11-04T08:47:12.626Z,94164.16
2022-11-04T08:50:27.676Z,94175.88
2022-11-04T08:53:35.954Z,94181.13
2022-11-04T08:56:45.726Z,94178.72
2022-11-04T08:59:54.228Z,94184.59
2022-11-04T09:03:02.566Z,94158.00
2022-11-04T09:06:14.837Z,94144.34
2022-11-04T09:09:23.285Z,94139.88
2022-11-04T09:12:33.322Z,94136.84
2022-11-04T09:15:42.356Z,94151.94
2022-11-04T09:18:51.000Z,94154.00
2022-11-04T09:21:59.565Z,94137.13
2022-11-04T09:25:08.751Z,94142.22
2022-11-04T09:28:18.383Z,94143.06
2022-11-04T09:31:30.431Z,94146.31
2022-11-04T09:34:38.776Z,94144.47
2022-11-04T09:37:47.480Z,94144.88
2022-11-04T09:40:56.853Z,94154.06
2022-11-04T09:44:24.192Z,94148.38
2022-11-04T09:47:36.106Z,94154.88
2022-11-04T09:50:51.619Z,94147.97
2022-11-04T09:54:10.378Z,94141.81
2022-11-04T09:57:21.686Z,94145.91
2022-11-04T10:00:36.685Z,94137.16
2022-11-04T10:04:07.565Z,94133.47
2022-11-04T10:07:42.448Z,94130.22
2022-11-04T10:11:05.503Z,94145.50
2022-11-04T10:14:54.417Z,94148.75
2022-11-04T10:18:22.133Z,94152.25
2022-11-04T10:21:47.592Z,94144.66
2022-11-04T10:25:09.928Z,94140.19
2022-11-04T10:28:24.074Z,94131.84
2022-11-04T10:31:33.163Z,94134.69
2022-11-04T10:34:50.203Z,94131.44
2022-11-04T10:38:12.501Z,94105.94
2022-11-04T10:41:34.235Z,94104.34
2022-11-04T10:44:43.167Z,94117.38
2022-11-04T10:48:00.359Z,94109.81
2022-11-04T10:51:10.081Z,94107.56
2022-11-04T10:54:18.363Z,94094.72
2022-11-04T10:57:27.527Z,94095.56
2022-11-04T11:00:40.447Z,94090.41
2022-11-04T11:03:49.215Z,94082.88
2022-11-04T11:07:02.576Z,94094.09
2022-11-04T11:10:20.818Z,94088.19
2022-11-04T11:13:36.311Z,94100.22
2022-11-04T11:16:45.808Z,94105.56
2022-11-04T11:20:00.238Z,94109.81
2022-11-04T11:23:38.223Z,94121.84
2022-11-04T11:26:49.297Z,94118.81
2022-11-04T11:29:57.559Z,94122.91
2022-11-04T11:33:16.796Z,94137.97
2022-11-04T11:36:27.936Z,94154.06
2022-11-04T11:39:37.820Z,94157.53
2022-11-04T11:42:46.123Z,94151.81
2022-11-04T11:45:57.576Z,94141.41
2022-11-04T11:49:07.288Z,94146.50
2022-11-04T11:52:33.659Z,94154.66
2022-11-04T11:55:50.951Z,94137.53
2022-11-04T12:02:54.084Z,94143.03
2022-11-04T12:06:32.637Z,94144.63
2022-11-04T12:09:50.398Z,94142.44
2022-11-04T12:13:23.764Z,94147.09
2022-11-04T12:16:45.375Z,94155.28
2022-11-04T12:20:22.625Z,94151.00
2022-11-04T12:23:40.960Z,94127.13
2022-11-04T12:27:06.367Z,94106.34
2022-11-04T12:30:29.828Z,94119.44
2022-11-04T12:33:50.618Z,94137.56
2022-11-04T12:37:15.976Z,94157.13
2022-11-04T12:40:30.441Z,94173.22
2022-11-04T12:43:52.533Z,94180.13
2022-11-04T12:47:20.047Z,94182.59
2022-11-04T12:51:02.553Z,94178.50
2022-11-04T12:54:36.338Z,94171.56
2022-11-04T12:57:54.708Z,94150.59
2022-11-04T13:01:15.467Z,94163.63
2022-11-04T13:04:33.838Z,94171.94
2022-11-04T13:07:50.651Z,94179.06
2022-11-04T13:11:22.459Z,94169.28
2022-11-04T13:14:42.082Z,94166.91
2022-11-04T13:17:58.966Z,94185.66
2022-11-04T13:21:14.921Z,94191.34
2022-11-04T13:24:30.557Z,94185.69
2022-11-04T13:27:45.119Z,94187.34
2022-11-04T13:31:05.039Z,94182.25
2022-11-04T13:34:28.568Z,94183.22
2022-11-04T13:37:45.511Z,94185.41
2022-11-04T13:41:18.750Z,94187.88
2022-11-04T13:44:37.019Z,94190.38
2022-11-04T13:47:53.227Z,94191.78
2022-11-04T13:51:07.339Z,94189.03
2022-11-04T13:54:31.484Z,94177.88
2022-11-04T13:57:55.725Z,94176.31
2022-11-04T14:01:26.757Z,94189.19
2022-11-04T14:04:36.900Z,94185.72
2022-11-04T14:08:13.384Z,94189.59
2022-11-04T14:11:23.118Z,94184.66
2022-11-04T14:14:31.451Z,94194.72
2022-11-04T14:18:02.291Z,94202.84
2022-11-04T14:21:13.642Z,94195.50
2022-11-04T14:24:22.005Z,94193.84
2022-11-04T14:27:42.216Z,94192.25
2022-11-04T14:30:53.599Z,94206.81
2022-11-04T14:34:02.127Z,94208.19
2022-11-04T14:37:25.318Z,94209.47
2022-11-04T14:40:52.223Z,94206.91
2022-11-04T14:44:09.399Z,94204.53
2022-11-04T14:47:22.335Z,94197.97
2022-11-04T14:50:30.622Z,94196.78
2022-11-04T14:53:39.818Z,94202.47
2022-11-04T14:56:48.350Z,94206.16
2022-11-04T14:59:58.163Z,94202.13
2022-11-04T15:03:57.589Z,94200.50
2022-11-04T15:06:54.944Z,94197.63
2022-11-04T15:10:20.459Z,94199.66
2022-11-04T15:13:28.851Z,94198.03
2022-11-04T15:16:38.473Z,94192.09
2022-11-04T15:19:52.616Z,94193.09
2022-11-04T15:23:05.175Z,94189.19
2022-11-04T15:26:29.727Z,94182.84
2022-11-04T15:29:38.625Z,94187.34
2022-11-04T15:32:57.894Z,94183.19
2022-11-04T15:36:09.571Z,94192.13
2022-11-04T15:39:23.133Z,94193.66
2022-11-04T15:42:40.628Z,94193.97
2022-11-04T15:45:55.787Z,94197.50
2022-11-04T15:49:08.413Z,94196.72
2022-11-04T15:52:22.086Z,94202.66
2022-11-04T15:55:32.886Z,94212.16
2022-11-04T15:58:43.041Z,94214.56
2022-11-04T16:01:54.365Z,94211.19
2022-11-04T16:05:22.719Z,94217.72
2022-11-04T16:08:33.215Z,94206.47
2022-11-04T16:11:41.888Z,94208.94
2022-11-04T16:14:53.159Z,94204.84
2022-11-04T16:18:02.816Z,94215.75
2022-11-04T16:21:23.625Z,94216.31
2022-11-04T16:24:35.707Z,94208.25
2022-11-04T16:27:47.214Z,94203.16
2022-11-04T16:31:00.425Z,94213.28
2022-11-04T16:34:13.026Z,94211.19
2022-11-04T16:37:29.132Z,94200.59
2022-11-04T16:40:38.450Z,94210.75
2022-11-04T16:43:50.340Z,94212.63
2022-11-04T16:46:59.031Z,94218.00
2022-11-04T16:50:16.268Z,94228.13
2022-11-04T16:53:25.901Z,94232.81
2022-11-04T16:56:35.962Z,94231.53
2022-11-04T16:59:44.904Z,94247.25
2022-11-04T17:02:53.322Z,94247.00
2022-11-04T17:06:01.558Z,94254.81
2022-11-04T17:09:21.990Z,94265.00
2022-11-04T17:12:30.496Z,94267.63
2022-11-04T17:15:40.542Z,94275.19
2022-11-04T17:18:50.652Z,94269.91
2022-11-04T17:22:00.446Z,94279.72
2022-11-04T17:25:20.216Z,94269.53
2022-11-04T17:28:28.856Z,94275.06
2022-11-04T17:31:37.423Z,94280.44
2022-11-04T17:34:46.511Z,94279.91
2022-11-04T17:37:56.158Z,94264.88
2022-11-04T17:41:23.544Z,94273.44
2022-11-04T17:44:36.967Z,94268.25
2022-11-04T17:47:46.490Z,94270.25
2022-11-04T17:50:58.245Z,94271.81
2022-11-04T17:54:07.241Z,94271.91
2022-11-04T17:57:19.018Z,94271.00
2022-11-04T18:00:29.774Z,94282.09
2022-11-04T18:03:38.716Z,94274.38
2022-11-04T18:07:54.748Z,94282.72
2022-11-04T18:11:07.051Z,94294.09
2022-11-04T18:14:18.630Z,94306.69
2022-11-04T18:17:27.858Z,94303.47
2022-11-04T18:20:36.286Z,94303.00
2022-11-04T18:23:44.625Z,94310.66
2022-11-04T18:26:53.490Z,94312.56
2022-11-04T18:30:03.314Z,94320.41
2022-11-04T18:33:12.018Z,94322.22
2022-11-04T18:36:20.919Z,94325.59
2022-11-04T18:39:29.404Z,94323.78
2022-11-04T18:42:37.990Z,94328.91
2022-11-04T18:45:47.743Z,94327.56
2022-11-04T18:48:56.156Z,94338.22
2022-11-04T18:52:04.787Z,94332.69
2022-11-04T18:55:13.137Z,94339.59
2022-11-04T18:58:22.490Z,94344.13
2022-11-04T19:01:35.018Z,94348.03
2022-11-04T19:04:43.658Z,94367.59
2022-11-04T19:07:52.784Z,94378.81
2022-11-04T19:11:02.115Z,94380.63
2022-11-04T19:14:16.125Z,94385.19
2022-11-04T19:17:26.158Z,94387.06
2022-11-04T19:20:36.683Z,94392.81
2022-11-04T19:23:45.911Z,94393.59
2022-11-04T19:26:54.206Z,94393.13
2022-11-04T19:30:02.901Z,94407.56
2022-11-04T19:33:13.975Z,94408.41
2022-11-04T19:36:25.775Z,94417.91
2022-11-04T19:39:34.276Z,94423.88
2022-11-04T19:43:00.096Z,94425.03
2022-11-04T19:46:08.986Z,94429.97
2022-11-04T19:49:18.843Z,94429.13
2022-11-04T19:52:27.317Z,94438.59
2022-11-04T19:55:36.633Z,94441.72
2022-11-04T19:58:46.980Z,94442.09
2022-11-04T20:01:55.653Z,94452.97
2022-11-04T20:05:05.895Z,94453.34
2022-11-04T20:08:14.279Z,94459.66
2022-11-04T20:11:23.055Z,94464.28
2022-11-04T20:14:30.392Z,94466.53
2022-11-04T20:17:38.718Z,94467.56
2022-11-04T20:20:48.558Z,94473.53
2022-11-04T20:23:58.134Z,94469.22
2022-11-04T20:27:06.495Z,94481.91
2022-11-04T20:30:14.918Z,94489.97
2022-11-04T20:33:23.253Z,94485.22
2022-11-04T20:36:33.472Z,94490.00
2022-11-04T20:39:42.690Z,94500.50
2022-11-04T20:42:51.199Z,94495.56
2022-11-04T20:46:06.117Z,94505.63
2022-11-04T20:49:15.336Z,94507.44
2022-11-04T20:52:26.251Z,94513.69
2022-11-04T20:55:35.824Z,94520.59
2022-11-04T20:58:47.869Z,94514.66
2022-11-04T21:01:57.599Z,94526.00
2022-11-04T21:05:07.319Z,94527.81
2022-11-04T21:08:17.417Z,94528.47
2022-11-04T21:11:31.680Z,94529.47
2022-11-04T21:14:40.818Z,94531.59
2022-11-04T21:17:48.952Z,94527.50
2022-11-04T21:20:57.433Z,94516.31
2022-11-04T21:24:08.619Z,94516.63
2022-11-04T21:27:17.115Z,94522.41
2022-11-04T21:30:30.388Z,94525.19
2022-11-04T21:33:41.176Z,94526.16
2022-11-04T21:36:53.409Z,94537.34
2022-11-04T21:40:03.266Z,94536.03
2022-11-04T21:43:12.212Z,94536.22
2022-11-04T21:46:20.402Z,94531.25
2022-11-04T21:49:28.940Z,94538.31
2022-11-04T21:52:37.374Z,94538.00
2022-11-04T21:55:47.720Z,94541.63
2022-11-04T21:58:57.145Z,94543.25
2022-11-04T22:02:05.569Z,94541.59
2022-11-04T22:05:15.533Z,94546.34
2022-11-04T22:08:23.921Z,94548.28
2022-11-04T22:11:39.202Z,94546.00
2022-11-04T22:14:48.277Z,94544.09
2022-11-04T22:17:56.874Z,94546.53
2022-11-04T22:21:09.356Z,94545.53
2022-11-04T22:24:19.851Z,94549.16
2022-11-04T22:27:29.607Z,94551.97
2022-11-04T22:30:38.958Z,94549.81
2022-11-04T22:33:47.263Z,94549.34
2022-11-04T22:36:56.472Z,94557.41
2022-11-04T22:40:06.171Z,94553.13
2022-11-04T22:43:15.983Z,94572.19
2022-11-04T22:46:27.163Z,94572.19
2022-11-04T22:49:36.318Z,94571.53
2022-11-04T22:52:44.901Z,94572.69
2022-11-04T22:55:54.057Z,94572.50
2022-11-04T22:59:05.516Z,94566.25
2022-11-04T23:02:13.935Z,94560.16
2022-11-04T23:05:22.502Z,94570.81
2022-11-04T23:08:33.686Z,94578.03
2022-11-04T23:12:00.043Z,94581.69
2022-11-04T23:15:28.698Z,94585.09
2022-11-04T23:18:43.088Z,94588.50
2022-11-04T23:22:08.822Z,94579.34
2022-11-04T23:25:17.299Z,94585.22
2022-11-04T23:28:43.081Z,94574.69
2022-11-04T23:31:52.856Z,94576.97
2022-11-04T23:35:32.998Z,94574.47
2022-11-04T23:38:42.586Z,94584.25
2022-11-04T23:42:10.995Z,94586.53
2022-11-04T23:45:36.852Z,94593.75
2022-11-04T23:49:03.804Z,94601.28
2022-11-04T23:52:29.500Z,94601.91
2022-11-04T23:55:55.546Z,94609.47
2022-11-04T23:59:21.703Z,94616.06
